Time;durP1;ratioP1;P1;durP2;ratioP2;P2;SDS_P1;SDS_P2;PMS_P1;PMS_P2;Temp;Humidity;BMP_temperature;BMP_pressure;BME280_temperature;BME280_humidity;BME280_pressure;Samples;Min_cycle;Max_cycle;Signal;HPM_P1;HPM_P2
2022/04/11 00:02:15;;;;;;;5.25;3.55;;;;;;;;;;5005873;28;20037;-85
2022/04/11 00:04:40;;;;;;;6.22;3.50;;;;;;;;;;5003462;28;20153;-83
2022/04/11 00:07:06;;;;;;;6.28;3.88;;;;;;;;;;5007581;28;20124;-83
2022/04/11 00:09:31;;;;;;;6.85;3.85;;;;;;;;;;5005281;28;20087;-86
2022/04/11 00:11:56;;;;;;;7.53;3.88;;;;;;;;;;5003675;28;20041;-84
2022/04/11 00:14:23;;;;;;;5.00;3.33;;;;;;;;;;5005032;28;20121;-84
2022/04/11 00:16:48;;;;;;;7.63;4.10;;;;;;;;;;5001611;28;20120;-86
2022/04/11 00:19:14;;;;;;;6.72;4.25;;;;;;;;;;5005075;28;20570;-84
2022/04/11 00:21:39;;;;;;;7.57;4.43;;;;;;;;;;5006579;28;20108;-87
2022/04/11 00:24:05;;;;;;;8.30;4.40;;;;;;;;;;5004995;28;20033;-87
2022/04/11 00:26:30;;;;;;;7.07;4.40;;;;;;;;;;5001895;28;20042;-87
2022/04/11 00:28:56;;;;;;;7.35;4.35;;;;;;;;;;5001348;28;20034;-84
2022/04/11 00:31:21;;;;;;;7.78;4.07;;;;;;;;;;5003443;28;20116;-84
2022/04/11 00:33:46;;;;;;;7.50;4.72;;;;;;;;;;4998661;28;20022;-87
2022/04/11 00:36:12;;;;;;;6.90;4.50;;;;;;;;;;5002149;28;20049;-86
2022/04/11 00:38:37;;;;;;;8.15;4.57;;;;;;;;;;5001813;28;20136;-88
2022/04/11 00:41:02;;;;;;;6.70;4.68;;;;;;;;;;5000280;28;20049;-87
2022/04/11 00:43:38;;;;;;;7.32;4.55;;;;;;;;;;5004406;28;20045;-84
2022/04/11 00:46:06;;;;;;;6.15;4.13;;;;;;;;;;5003330;28;20072;-87
2022/04/11 00:48:31;;;;;;;6.88;4.68;;;;;;;;;;4996808;28;20044;-86
2022/04/11 00:51:10;;;;;;;6.80;4.68;;;;;;;;;;4996233;28;20037;-84
2022/04/11 00:53:38;;;;;;;6.75;4.57;;;;;;;;;;4998673;28;20041;-87
2022/04/11 00:56:06;;;;;;;7.22;4.82;;;;;;;;;;4996268;28;20033;-85
2022/04/11 00:58:32;;;;;;;7.88;5.20;;;;;;;;;;5017692;28;20026;-84
2022/04/11 01:00:58;;;;;;;8.15;4.93;;;;;;;;;;4997667;28;20095;-83
2022/04/11 01:03:23;;;;;;;6.88;5.07;;;;;;;;;;4996013;28;20552;-85
2022/04/11 01:05:49;;;;;;;8.85;4.65;;;;;;;;;;5001895;28;20056;-85
2022/04/11 01:08:14;;;;;;;8.82;4.70;;;;;;;;;;4997710;28;20103;-87
2022/04/11 01:10:40;;;;;;;7.88;5.18;;;;;;;;;;4998520;28;20041;-87
2022/04/11 01:13:05;;;;;;;7.85;5.20;;;;;;;;;;4999563;28;20781;-87
2022/04/11 01:15:31;;;;;;;7.28;4.85;;;;;;;;;;4996940;28;20165;-87
2022/04/11 01:17:56;;;;;;;7.05;4.97;;;;;;;;;;4997643;28;20127;-87
2022/04/11 01:20:22;;;;;;;7.28;5.55;;;;;;;;;;4995195;28;20116;-87
2022/04/11 01:22:48;;;;;;;8.07;5.20;;;;;;;;;;4997005;28;20445;-83
2022/04/11 01:25:14;;;;;;;10.38;5.32;;;;;;;;;;4996983;28;20556;-83
2022/04/11 01:27:41;;;;;;;7.72;5.18;;;;;;;;;;4998257;28;20068;-84
2022/04/11 01:30:09;;;;;;;7.47;5.03;;;;;;;;;;4998516;28;20132;-87
2022/04/11 01:32:35;;;;;;;7.43;5.10;;;;;;;;;;4999976;28;20034;-87
2022/04/11 01:35:01;;;;;;;6.78;5.05;;;;;;;;;;4998775;28;20050;-86
2022/04/11 01:37:27;;;;;;;8.32;4.80;;;;;;;;;;4996460;28;20125;-85
2022/04/11 01:39:53;;;;;;;7.10;5.30;;;;;;;;;;4999190;28;20974;-87
2022/04/11 01:42:18;;;;;;;6.68;5.00;;;;;;;;;;5001189;28;20084;-84
2022/04/11 01:44:43;;;;;;;7.32;5.53;;;;;;;;;;5002903;28;21152;-86
2022/04/11 01:47:09;;;;;;;7.20;5.47;;;;;;;;;;5003222;28;20033;-84
2022/04/11 01:49:34;;;;;;;9.10;5.38;;;;;;;;;;5001616;28;20025;-84
2022/04/11 01:52:00;;;;;;;8.93;5.82;;;;;;;;;;4995436;28;20030;-84
2022/04/11 01:54:25;;;;;;;7.20;4.90;;;;;;;;;;4995763;28;20353;-88
2022/04/11 01:56:50;;;;;;;8.40;5.30;;;;;;;;;;5000294;28;20037;-88
2022/04/11 01:59:16;;;;;;;8.93;5.82;;;;;;;;;;5000123;28;20033;-84
2022/04/11 02:01:43;;;;;;;8.52;6.05;;;;;;;;;;5002347;28;20068;-87
2022/04/11 02:04:08;;;;;;;8.38;5.20;;;;;;;;;;4999570;28;20037;-84
2022/04/11 02:06:34;;;;;;;8.57;5.47;;;;;;;;;;5017692;28;20064;-83
2022/04/11 02:08:59;;;;;;;9.48;5.95;;;;;;;;;;5001644;28;20401;-84
2022/04/11 02:11:24;;;;;;;7.43;5.13;;;;;;;;;;5002399;28;20367;-87
2022/04/11 02:13:50;;;;;;;8.75;6.20;;;;;;;;;;4999658;28;20493;-87
2022/04/11 02:16:15;;;;;;;7.55;5.43;;;;;;;;;;5003021;28;20095;-84
2022/04/11 02:18:40;;;;;;;7.65;5.07;;;;;;;;;;5004046;28;20041;-88
2022/04/11 02:21:06;;;;;;;9.30;5.90;;;;;;;;;;5003819;28;20045;-88
2022/04/11 02:23:31;;;;;;;7.93;5.55;;;;;;;;;;4999603;28;20026;-87
2022/04/11 02:25:56;;;;;;;8.13;5.38;;;;;;;;;;5001684;28;20033;-83
2022/04/11 02:28:22;;;;;;;9.45;5.75;;;;;;;;;;5006509;28;20144;-87
2022/04/11 02:30:47;;;;;;;9.18;6.15;;;;;;;;;;5005266;28;20048;-84
2022/04/11 02:33:12;;;;;;;9.82;5.63;;;;;;;;;;5007520;28;20144;-88
2022/04/11 02:35:38;;;;;;;7.70;5.53;;;;;;;;;;5002997;28;20029;-84
2022/04/11 02:38:03;;;;;;;9.32;5.90;;;;;;;;;;5004015;28;20065;-87
2022/04/11 02:40:29;;;;;;;8.68;5.78;;;;;;;;;;5006452;28;20494;-84
2022/04/11 02:42:54;;;;;;;8.32;5.43;;;;;;;;;;5005140;28;20049;-85
2022/04/11 02:45:20;;;;;;;8.50;5.78;;;;;;;;;;5003927;28;20168;-87
2022/04/11 02:47:45;;;;;;;7.28;5.43;;;;;;;;;;5002495;28;20065;-87
2022/04/11 02:50:11;;;;;;;7.97;5.63;;;;;;;;;;5006767;28;20122;-85
2022/04/11 02:52:36;;;;;;;9.68;5.45;;;;;;;;;;5005657;28;20037;-86
2022/04/11 02:55:03;;;;;;;7.72;5.38;;;;;;;;;;5004243;28;20040;-83
2022/04/11 02:57:29;;;;;;;8.40;5.75;;;;;;;;;;5002990;28;20029;-85
2022/04/11 02:59:55;;;;;;;7.93;5.97;;;;;;;;;;5008745;28;20451;-85
2022/04/11 03:02:20;;;;;;;9.40;5.70;;;;;;;;;;5004804;28;20087;-87
2022/04/11 03:04:46;;;;;;;8.55;5.70;;;;;;;;;;5007258;28;20421;-84
2022/04/11 03:07:11;;;;;;;8.40;5.75;;;;;;;;;;5003581;28;20474;-85
2022/04/11 03:09:37;;;;;;;9.65;5.63;;;;;;;;;;5000966;28;20042;-84
2022/04/11 03:12:03;;;;;;;9.48;5.70;;;;;;;;;;5001893;28;20486;-84
2022/04/11 03:14:29;;;;;;;8.13;5.45;;;;;;;;;;5001983;28;20026;-87
2022/04/11 03:16:54;;;;;;;8.93;5.75;;;;;;;;;;5003021;28;20113;-88
2022/04/11 03:19:20;;;;;;;7.80;5.50;;;;;;;;;;4998608;28;20025;-85
2022/04/11 03:21:45;;;;;;;8.88;5.78;;;;;;;;;;5013392;28;20100;-86
2022/04/11 03:24:11;;;;;;;8.20;5.40;;;;;;;;;;5006227;28;20034;-88
2022/04/11 03:26:36;;;;;;;8.15;5.35;;;;;;;;;;5003876;28;20034;-86
2022/04/11 03:29:01;;;;;;;9.40;5.75;;;;;;;;;;5005517;28;20041;-82
2022/04/11 03:31:27;;;;;;;8.63;5.65;;;;;;;;;;5006389;28;20026;-86
2022/04/11 03:33:54;;;;;;;7.22;5.10;;;;;;;;;;5002905;28;20034;-87
2022/04/11 03:36:21;;;;;;;7.55;5.53;;;;;;;;;;5001907;28;20049;-87
2022/04/11 03:38:47;;;;;;;8.63;5.28;;;;;;;;;;4999368;28;20426;-85
2022/04/11 03:41:12;;;;;;;10.60;5.55;;;;;;;;;;5003925;28;20048;-84
2022/04/11 03:43:38;;;;;;;10.30;5.75;;;;;;;;;;4999933;28;20084;-86
2022/04/11 03:46:03;;;;;;;8.18;5.50;;;;;;;;;;5001564;28;20065;-88
2022/04/11 03:48:28;;;;;;;8.05;5.50;;;;;;;;;;4999956;28;20495;-85
2022/04/11 03:50:54;;;;;;;8.32;5.72;;;;;;;;;;4999388;28;20087;-87
2022/04/11 03:53:19;;;;;;;7.60;5.50;;;;;;;;;;5001072;28;20098;-86
2022/04/11 03:55:44;;;;;;;7.68;5.32;;;;;;;;;;5004576;28;20030;-88
2022/04/11 03:58:10;;;;;;;10.23;5.82;;;;;;;;;;5000417;28;20029;-84
2022/04/11 04:00:35;;;;;;;11.27;5.55;;;;;;;;;;5015189;28;20034;-84
2022/04/11 04:03:08;;;;;;;8.10;5.53;;;;;;;;;;5011208;28;20045;-83
2022/04/11 04:05:45;;;;;;;10.00;6.47;;;;;;;;;;4996792;28;20038;-84
2022/04/11 04:08:12;;;;;;;9.35;5.95;;;;;;;;;;4998441;28;20068;-84
2022/04/11 04:10:38;;;;;;;9.43;6.30;;;;;;;;;;4999771;28;20120;-85
2022/04/11 04:13:04;;;;;;;8.60;6.05;;;;;;;;;;5002488;28;20495;-86
2022/04/11 04:15:30;;;;;;;8.60;5.45;;;;;;;;;;5001709;28;20026;-87
2022/04/11 04:17:56;;;;;;;8.93;6.22;;;;;;;;;;5000356;28;20037;-84
2022/04/11 04:20:25;;;;;;;8.88;5.95;;;;;;;;;;5000751;28;20116;-84
2022/04/11 04:22:51;;;;;;;8.30;6.20;;;;;;;;;;4999383;28;20509;-84
2022/04/11 04:25:17;;;;;;;8.60;6.13;;;;;;;;;;4999979;28;20026;-87
2022/04/11 04:27:42;;;;;;;8.68;5.78;;;;;;;;;;5002995;28;20053;-89
2022/04/11 04:30:08;;;;;;;8.80;5.85;;;;;;;;;;5001028;28;20049;-84
2022/04/11 04:32:33;;;;;;;8.20;5.55;;;;;;;;;;4997752;28;20068;-84
2022/04/11 04:35:00;;;;;;;8.55;5.57;;;;;;;;;;5003053;28;20032;-84
2022/04/11 04:37:25;;;;;;;10.20;5.78;;;;;;;;;;4997136;28;20553;-86
2022/04/11 04:39:51;;;;;;;8.65;5.55;;;;;;;;;;4998672;28;20044;-83
2022/04/11 04:42:21;;;;;;;7.78;5.20;;;;;;;;;;5002231;28;20036;-84
2022/04/11 04:44:46;;;;;;;8.32;5.97;;;;;;;;;;5003925;28;20430;-88
2022/04/11 04:47:11;;;;;;;9.80;5.85;;;;;;;;;;4999335;28;20108;-88
2022/04/11 04:49:37;;;;;;;7.35;5.32;;;;;;;;;;4998506;28;20026;-87
2022/04/11 04:52:03;;;;;;;8.30;6.18;;;;;;;;;;4998994;28;20025;-88
2022/04/11 04:54:28;;;;;;;8.73;5.70;;;;;;;;;;4999887;28;20041;-80
2022/04/11 04:56:53;;;;;;;9.15;5.60;;;;;;;;;;5000562;28;20062;-85
2022/04/11 04:59:19;;;;;;;8.13;5.50;;;;;;;;;;4996531;28;20147;-83
2022/04/11 05:01:44;;;;;;;8.57;5.75;;;;;;;;;;5000736;28;20040;-84
2022/04/11 05:04:09;;;;;;;8.13;5.85;;;;;;;;;;4997248;28;20040;-83
2022/04/11 05:06:35;;;;;;;9.43;6.00;;;;;;;;;;4997128;28;20038;-85
2022/04/11 05:09:00;;;;;;;9.40;6.20;;;;;;;;;;4995066;28;20077;-88
2022/04/11 05:11:26;;;;;;;8.48;5.50;;;;;;;;;;4998060;28;20029;-81
2022/04/11 05:13:54;;;;;;;8.98;5.85;;;;;;;;;;5000163;28;20191;-87
2022/04/11 05:16:20;;;;;;;8.25;5.13;;;;;;;;;;5014871;28;20595;-84
2022/04/11 05:18:46;;;;;;;9.40;5.57;;;;;;;;;;5002273;28;20027;-84
2022/04/11 05:21:11;;;;;;;8.00;5.07;;;;;;;;;;5003280;28;20048;-86
2022/04/11 05:23:37;;;;;;;8.38;5.88;;;;;;;;;;4985266;28;20050;-83
2022/04/11 05:26:05;;;;;;;10.50;5.78;;;;;;;;;;5004733;28;20030;-83
2022/04/11 05:28:34;;;;;;;9.45;5.22;;;;;;;;;;5002558;28;20053;-85
2022/04/11 05:31:04;;;;;;;10.57;6.50;;;;;;;;;;5003229;28;20086;-84
2022/04/11 05:33:29;;;;;;;10.35;6.25;;;;;;;;;;4999413;28;20030;-87
2022/04/11 05:35:56;;;;;;;7.22;5.40;;;;;;;;;;5000542;28;20034;-87
2022/04/11 05:38:22;;;;;;;8.82;5.78;;;;;;;;;;5001747;28;20091;-88
2022/04/11 05:40:48;;;;;;;9.60;6.70;;;;;;;;;;5000149;28;20030;-84
2022/04/11 05:43:13;;;;;;;8.10;5.60;;;;;;;;;;5003980;28;20177;-87
2022/04/11 05:45:40;;;;;;;10.13;6.03;;;;;;;;;;5002290;28;20030;-85
2022/04/11 05:48:06;;;;;;;9.73;5.78;;;;;;;;;;5000428;28;20030;-86
2022/04/11 05:50:31;;;;;;;7.47;5.45;;;;;;;;;;5004494;28;20029;-87
2022/04/11 05:52:56;;;;;;;8.40;6.07;;;;;;;;;;4998922;28;20030;-83
2022/04/11 05:55:23;;;;;;;9.23;6.05;;;;;;;;;;5006809;28;20868;-83
2022/04/11 05:57:49;;;;;;;10.68;6.60;;;;;;;;;;5002829;28;20034;-85
2022/04/11 06:00:15;;;;;;;8.27;5.90;;;;;;;;;;5002747;28;20065;-87
2022/04/11 06:02:40;;;;;;;10.15;6.32;;;;;;;;;;5004955;28;20044;-85
2022/04/11 06:05:06;;;;;;;10.52;6.90;;;;;;;;;;5000788;28;20486;-88
2022/04/11 06:07:33;;;;;;;10.55;7.25;;;;;;;;;;5014805;28;20034;-85
2022/04/11 06:09:59;;;;;;;11.18;7.00;;;;;;;;;;5005418;28;20420;-82
2022/04/11 06:12:25;;;;;;;10.43;6.32;;;;;;;;;;5004475;28;20065;-83
2022/04/11 06:14:53;;;;;;;11.30;6.63;;;;;;;;;;5005459;28;22058;-87
2022/04/11 06:17:23;;;;;;;11.73;7.43;;;;;;;;;;4997054;28;20409;-85
2022/04/11 06:19:49;;;;;;;8.73;6.28;;;;;;;;;;5003675;28;20025;-83
2022/04/11 06:22:14;;;;;;;10.32;6.93;;;;;;;;;;5005583;28;20379;-86
2022/04/11 06:24:39;;;;;;;9.10;6.88;;;;;;;;;;5007781;28;20112;-85
2022/04/11 06:27:05;;;;;;;9.68;7.13;;;;;;;;;;5003652;28;20030;-81
2022/04/11 06:29:30;;;;;;;11.93;6.20;;;;;;;;;;5006998;28;20041;-86
2022/04/11 06:31:55;;;;;;;11.02;7.43;;;;;;;;;;5006177;28;20409;-85
2022/04/11 06:34:21;;;;;;;11.23;6.68;;;;;;;;;;5001501;28;20028;-82
2022/04/11 06:36:46;;;;;;;11.25;6.82;;;;;;;;;;5001904;28;20090;-81
2022/04/11 06:39:11;;;;;;;9.20;5.97;;;;;;;;;;5004716;28;20723;-83
2022/04/11 06:41:37;;;;;;;9.73;6.45;;;;;;;;;;5003599;28;20025;-83
2022/04/11 06:44:02;;;;;;;8.77;6.32;;;;;;;;;;5021197;28;20453;-81
2022/04/11 06:46:27;;;;;;;12.20;6.93;;;;;;;;;;5005819;28;20026;-82
2022/04/11 06:48:53;;;;;;;9.73;6.45;;;;;;;;;;5005444;28;21430;-82
2022/04/11 06:51:18;;;;;;;10.90;6.72;;;;;;;;;;5006588;28;20017;-83
2022/04/11 06:53:44;;;;;;;10.70;6.85;;;;;;;;;;5005819;28;20033;-83
2022/04/11 06:56:09;;;;;;;11.40;7.00;;;;;;;;;;5004474;28;20561;-87
2022/04/11 06:58:34;;;;;;;10.07;6.85;;;;;;;;;;5003931;28;20025;-86
2022/04/11 07:01:00;;;;;;;10.68;6.55;;;;;;;;;;5005894;28;20104;-83
2022/04/11 07:03:29;;;;;;;9.75;6.35;;;;;;;;;;5004583;28;20045;-87
2022/04/11 07:05:54;;;;;;;8.30;6.20;;;;;;;;;;5006369;28;20367;-87
2022/04/11 07:08:19;;;;;;;9.95;6.40;;;;;;;;;;5004862;28;20120;-88
2022/04/11 07:10:45;;;;;;;9.00;6.47;;;;;;;;;;5005757;28;20133;-83
2022/04/11 07:13:10;;;;;;;10.55;6.82;;;;;;;;;;5005908;28;20080;-83
2022/04/11 07:15:35;;;;;;;10.88;7.25;;;;;;;;;;5006169;28;20026;-87
2022/04/11 07:18:01;;;;;;;8.85;6.38;;;;;;;;;;5005519;28;20034;-84
2022/04/11 07:20:26;;;;;;;9.25;6.70;;;;;;;;;;5004755;28;20033;-87
2022/04/11 07:22:52;;;;;;;9.13;6.32;;;;;;;;;;5004897;28;20540;-87
2022/04/11 07:25:18;;;;;;;9.48;6.45;;;;;;;;;;5004509;28;20030;-81
2022/04/11 07:27:43;;;;;;;10.70;6.25;;;;;;;;;;5005981;28;20034;-86
2022/04/11 07:30:09;;;;;;;8.07;6.28;;;;;;;;;;5004782;28;20052;-86
2022/04/11 07:32:34;;;;;;;8.45;6.30;;;;;;;;;;5002368;28;22461;-81
2022/04/11 07:34:59;;;;;;;8.50;6.47;;;;;;;;;;5001292;28;20042;-81
2022/04/11 07:37:27;;;;;;;9.40;6.25;;;;;;;;;;5001784;28;20435;-86
2022/04/11 07:39:53;;;;;;;13.00;6.13;;;;;;;;;;5007204;28;20538;-86
2022/04/11 07:42:19;;;;;;;9.23;5.90;;;;;;;;;;5003619;28;20117;-83
2022/04/11 07:44:45;;;;;;;8.68;5.93;;;;;;;;;;5003708;28;20052;-87
2022/04/11 07:47:10;;;;;;;8.57;5.97;;;;;;;;;;5004205;28;20030;-83
2022/04/11 07:49:36;;;;;;;7.43;5.78;;;;;;;;;;5004893;28;20501;-85
2022/04/11 07:52:01;;;;;;;9.27;5.82;;;;;;;;;;5005145;28;20409;-86
2022/04/11 07:54:27;;;;;;;12.05;6.45;;;;;;;;;;5004852;28;20480;-86
2022/04/11 07:56:52;;;;;;;7.50;5.43;;;;;;;;;;5003199;28;20065;-85
2022/04/11 07:59:17;;;;;;;11.13;6.50;;;;;;;;;;5005414;28;20088;-83
2022/04/11 08:01:43;;;;;;;11.45;6.88;;;;;;;;;;4999676;28;20436;-82
2022/04/11 08:04:08;;;;;;;10.65;7.65;;;;;;;;;;5000306;28;20072;-85
2022/04/11 08:06:33;;;;;;;9.73;6.85;;;;;;;;;;5002044;28;20030;-84
2022/04/11 08:08:59;;;;;;;10.13;6.70;;;;;;;;;;4998481;28;20021;-83
2022/04/11 08:11:25;;;;;;;9.10;6.55;;;;;;;;;;5000150;28;20592;-83
2022/04/11 08:13:52;;;;;;;9.43;6.63;;;;;;;;;;4995141;28;20030;-85
2022/04/11 08:16:17;;;;;;;14.23;6.78;;;;;;;;;;4998110;28;20041;-86
2022/04/11 08:18:43;;;;;;;9.65;6.53;;;;;;;;;;4996600;28;20026;-84
2022/04/11 08:21:08;;;;;;;8.63;6.60;;;;;;;;;;5000614;28;20036;-88
2022/04/11 08:23:34;;;;;;;8.20;6.45;;;;;;;;;;4999143;28;20425;-84
2022/04/11 08:25:59;;;;;;;8.93;6.30;;;;;;;;;;4993853;28;20045;-87
2022/04/11 08:28:25;;;;;;;8.73;5.78;;;;;;;;;;4999041;28;20029;-86
2022/04/11 08:30:50;;;;;;;9.93;6.15;;;;;;;;;;4996863;28;20029;-83
2022/04/11 08:33:15;;;;;;;7.35;5.70;;;;;;;;;;4997399;28;20069;-83
2022/04/11 08:35:41;;;;;;;8.20;5.22;;;;;;;;;;5000555;28;20371;-82
2022/04/11 08:38:07;;;;;;;8.75;4.80;;;;;;;;;;5010517;28;20034;-83
2022/04/11 08:40:32;;;;;;;10.32;5.38;;;;;;;;;;4999267;28;20042;-87
2022/04/11 08:43:02;;;;;;;7.25;4.32;;;;;;;;;;5000324;28;20056;-85
2022/04/11 08:45:28;;;;;;;6.53;4.72;;;;;;;;;;4998595;28;20038;-82
2022/04/11 08:47:54;;;;;;;7.18;4.72;;;;;;;;;;4999376;28;20053;-83
2022/04/11 08:50:21;;;;;;;9.10;5.38;;;;;;;;;;4998228;28;20124;-86
2022/04/11 08:52:55;;;;;;;7.13;4.85;;;;;;;;;;5000029;28;20406;-83
2022/04/11 08:55:25;;;;;;;10.25;5.70;;;;;;;;;;4996886;28;20068;-82
2022/04/11 08:57:50;;;;;;;8.88;5.15;;;;;;;;;;4998563;28;20402;-86
2022/04/11 09:00:20;;;;;;;9.40;4.72;;;;;;;;;;5000371;28;20036;-83
2022/04/11 09:02:46;;;;;;;6.30;4.57;;;;;;;;;;4997314;28;20057;-85
2022/04/11 09:05:17;;;;;;;5.60;3.90;;;;;;;;;;4997358;28;20191;-85
2022/04/11 09:07:47;;;;;;;7.97;5.43;;;;;;;;;;4994751;28;21680;-83
2022/04/11 09:10:35;;;;;;;7.65;4.20;;;;;;;;;;5000882;28;20120;-87
2022/04/11 09:13:05;;;;;;;7.32;4.20;;;;;;;;;;4996517;28;20367;-84
2022/04/11 09:15:39;;;;;;;6.05;4.38;;;;;;;;;;4995371;28;20429;-86
2022/04/11 09:18:05;;;;;;;7.63;4.40;;;;;;;;;;4994914;28;20044;-82
2022/04/11 09:20:30;;;;;;;5.40;3.83;;;;;;;;;;4983608;28;20041;-86
2022/04/11 09:22:57;;;;;;;6.20;3.63;;;;;;;;;;4997009;28;20405;-86
2022/04/11 09:25:32;;;;;;;6.25;3.80;;;;;;;;;;4997752;28;20061;-83
2022/04/11 09:28:09;;;;;;;8.68;4.00;;;;;;;;;;5004389;28;20060;-83
2022/04/11 09:30:36;;;;;;;5.53;3.58;;;;;;;;;;5000118;28;20034;-83
2022/04/11 09:33:08;;;;;;;8.05;3.90;;;;;;;;;;5000244;28;20386;-82
2022/04/11 09:36:01;;;;;;;7.25;3.97;;;;;;;;;;5004454;28;20022;-88
2022/04/11 09:38:29;;;;;;;6.28;3.70;;;;;;;;;;5004022;28;20038;-85
2022/04/11 09:40:56;;;;;;;6.88;3.80;;;;;;;;;;5006296;28;20398;-86
2022/04/11 09:43:29;;;;;;;5.75;3.63;;;;;;;;;;5007763;28;20050;-82
2022/04/11 09:45:55;;;;;;;;;;;;;;;;;;5007031;28;20072;-83
2022/04/11 09:48:25;;;;;;;5.43;3.70;;;;;;;;;;5007669;28;19964;-82
2022/04/11 09:50:53;;;;;;;6.55;3.60;;;;;;;;;;5024041;28;20418;-86
2022/04/11 09:53:23;;;;;;;6.72;3.65;;;;;;;;;;4988316;28;20584;-87
2022/04/11 09:55:54;;;;;;;11.38;4.00;;;;;;;;;;5006181;28;20505;-84
2022/04/11 09:58:21;;;;;;;7.55;3.00;;;;;;;;;;5006531;28;20041;-82
2022/04/11 10:00:49;;;;;;;6.38;3.45;;;;;;;;;;5009865;28;20382;-85
2022/04/11 10:03:15;;;;;;;8.35;4.40;;;;;;;;;;5006750;28;20023;-81
2022/04/11 10:05:41;;;;;;;6.75;3.60;;;;;;;;;;5007862;28;20030;-85
2022/04/11 10:08:08;;;;;;;6.22;3.50;;;;;;;;;;5006186;28;20036;-83
2022/04/11 10:10:38;;;;;;;11.35;3.83;;;;;;;;;;5008815;28;20021;-86
2022/04/11 10:13:05;;;;;;;6.63;3.33;;;;;;;;;;5002599;28;20037;-86
2022/04/11 10:15:31;;;;;;;5.75;3.35;;;;;;;;;;5003497;28;20109;-86
2022/04/11 10:17:57;;;;;;;6.60;3.90;;;;;;;;;;5004542;28;20467;-85
2022/04/11 10:20:31;;;;;;;8.43;3.15;;;;;;;;;;5004609;28;20038;-84
2022/04/11 10:23:15;;;;;;;6.30;3.75;;;;;;;;;;5005344;28;20125;-86
2022/04/11 10:25:46;;;;;;;5.90;2.85;;;;;;;;;;5012933;28;20055;-83
2022/04/11 10:28:42;;;;;;;4.93;2.90;;;;;;;;;;5004927;28;20026;-85
2022/04/11 10:31:10;;;;;;;4.93;2.88;;;;;;;;;;5003708;28;20037;-85
2022/04/11 10:33:40;;;;;;;8.00;3.55;;;;;;;;;;5005612;28;20357;-85
2022/04/11 10:36:32;;;;;;;6.13;3.40;;;;;;;;;;5005526;28;20824;-86
2022/04/11 10:39:12;;;;;;;5.22;3.55;;;;;;;;;;5006306;28;20042;-85
2022/04/11 10:41:56;;;;;;;5.13;3.80;;;;;;;;;;5007321;28;20444;-86
2022/04/11 10:44:32;;;;;;;6.93;3.60;;;;;;;;;;5005627;28;20464;-86
2022/04/11 10:47:10;;;;;;;5.95;3.55;;;;;;;;;;5006114;28;20931;-86
2022/04/11 10:49:44;;;;;;;8.15;3.90;;;;;;;;;;5006254;28;20442;-85
2022/04/11 10:52:40;;;;;;;8.15;3.72;;;;;;;;;;5003616;28;20367;-85
2022/04/11 10:55:15;;;;;;;6.32;4.10;;;;;;;;;;5002944;28;20025;-85
2022/04/11 10:57:54;;;;;;;5.35;3.70;;;;;;;;;;5003743;28;20041;-81
2022/04/11 11:00:26;;;;;;;5.93;3.60;;;;;;;;;;5005997;28;20021;-84
2022/04/11 11:03:00;;;;;;;5.85;3.70;;;;;;;;;;5017919;28;20428;-83
2022/04/11 11:05:48;;;;;;;5.93;3.42;;;;;;;;;;5008010;28;20108;-82
2022/04/11 11:08:13;;;;;;;6.95;3.33;;;;;;;;;;5000761;28;20025;-85
2022/04/11 11:10:45;;;;;;;5.32;3.42;;;;;;;;;;5007083;28;20022;-83
2022/04/11 11:13:30;;;;;;;5.47;3.67;;;;;;;;;;5005951;28;20084;-81
2022/04/11 11:16:07;;;;;;;9.55;3.97;;;;;;;;;;5007181;28;20030;-80
2022/04/11 11:18:51;;;;;;;5.18;3.65;;;;;;;;;;5005617;28;20034;-85
2022/04/11 11:21:21;;;;;;;4.80;3.30;;;;;;;;;;5005620;28;20101;-85
2022/04/11 11:24:06;;;;;;;6.15;3.42;;;;;;;;;;5006234;28;20521;-85
2022/04/11 11:26:46;;;;;;;6.25;3.75;;;;;;;;;;5005390;28;20113;-84
2022/04/11 11:29:27;;;;;;;8.75;3.90;;;;;;;;;;5004941;28;20130;-85
2022/04/11 11:31:57;;;;;;;7.82;4.10;;;;;;;;;;5022374;28;20076;-82
2022/04/11 11:34:25;;;;;;;6.50;3.80;;;;;;;;;;5005456;28;20053;-83
2022/04/11 11:36:53;;;;;;;6.68;3.80;;;;;;;;;;5003554;28;20034;-81
2022/04/11 11:39:23;;;;;;;6.13;3.40;;;;;;;;;;5006086;28;20561;-84
2022/04/11 11:41:50;;;;;;;4.70;3.35;;;;;;;;;;5004422;28;20065;-85
2022/04/11 11:44:16;;;;;;;6.40;3.70;;;;;;;;;;5007757;28;20056;-81
2022/04/11 11:46:56;;;;;;;5.43;3.50;;;;;;;;;;5000760;28;20032;-85
2022/04/11 11:49:22;;;;;;;6.05;3.50;;;;;;;;;;5005745;28;20030;-84
2022/04/11 11:51:48;;;;;;;7.25;3.90;;;;;;;;;;5004380;28;20061;-85
2022/04/11 11:54:15;;;;;;;6.47;3.58;;;;;;;;;;5005571;28;20025;-81
2022/04/11 11:56:45;;;;;;;7.72;3.50;;;;;;;;;;5005514;28;20045;-84
2022/04/11 11:59:11;;;;;;;5.55;3.65;;;;;;;;;;5006072;28;20075;-82
2022/04/11 12:01:39;;;;;;;5.22;3.45;;;;;;;;;;5001014;28;20367;-83
2022/04/11 12:04:20;;;;;;;8.57;3.50;;;;;;;;;;5021270;28;20060;-85
2022/04/11 12:06:53;;;;;;;5.10;3.50;;;;;;;;;;5002941;28;20158;-82
2022/04/11 12:09:18;;;;;;;;;;;;;;;;;;5001860;28;20072;-85
2022/04/11 12:11:44;;;;;;;5.90;3.50;;;;;;;;;;5003994;28;20420;-85
2022/04/11 12:14:09;;;;;;;6.40;3.50;;;;;;;;;;5004380;28;20034;-81
2022/04/11 12:16:58;;;;;;;8.18;3.85;;;;;;;;;;5004974;28;20032;-82
2022/04/11 12:19:34;;;;;;;5.97;3.58;;;;;;;;;;5012830;28;20026;-85
2022/04/11 12:22:10;;;;;;;6.40;3.67;;;;;;;;;;5004936;28;20036;-85
2022/04/11 12:24:35;;;;;;;4.53;3.15;;;;;;;;;;5005470;28;20026;-81
2022/04/11 12:27:01;;;;;;;5.93;3.40;;;;;;;;;;5003229;28;20095;-86
2022/04/11 12:29:27;;;;;;;6.82;3.60;;;;;;;;;;5004326;28;20054;-80
2022/04/11 12:31:56;;;;;;;6.72;3.53;;;;;;;;;;5002254;28;20137;-81
2022/04/11 12:34:34;;;;;;;5.78;3.60;;;;;;;;;;5004934;28;20033;-84
2022/04/11 12:37:05;;;;;;;5.68;3.35;;;;;;;;;;5003830;28;20034;-84
2022/04/11 12:39:30;;;;;;;5.88;3.55;;;;;;;;;;5004738;28;20038;-84
2022/04/11 12:41:57;;;;;;;6.38;3.08;;;;;;;;;;5004241;28;20092;-84
2022/04/11 12:44:36;;;;;;;5.72;3.35;;;;;;;;;;5003233;28;20050;-84
2022/04/11 12:47:02;;;;;;;7.97;3.90;;;;;;;;;;5004861;28;20140;-82
2022/04/11 12:49:48;;;;;;;5.93;3.65;;;;;;;;;;5021078;28;20121;-81
2022/04/11 12:52:16;;;;;;;5.93;3.42;;;;;;;;;;5003237;28;20036;-83
2022/04/11 12:54:47;;;;;;;6.45;3.45;;;;;;;;;;5002391;28;20147;-80
2022/04/11 12:57:21;;;;;;;5.72;3.58;;;;;;;;;;5001721;28;20045;-80
2022/04/11 12:59:47;;;;;;;5.93;3.83;;;;;;;;;;5002432;28;20033;-82
2022/04/11 13:02:15;;;;;;;5.07;3.30;;;;;;;;;;5005771;28;20088;-85
2022/04/11 13:04:50;;;;;;;6.70;3.78;;;;;;;;;;5004276;28;20022;-81
2022/04/11 13:07:16;;;;;;;8.30;3.90;;;;;;;;;;5003907;28;20025;-83
2022/04/11 13:09:42;;;;;;;6.38;3.72;;;;;;;;;;5004876;28;20056;-85
2022/04/11 13:12:09;;;;;;;6.38;4.32;;;;;;;;;;5002875;28;20076;-85
2022/04/11 13:14:36;;;;;;;5.30;4.03;;;;;;;;;;5004361;28;20018;-81
2022/04/11 13:19:47;;;;;;;6.07;3.88;;;;;;;;;;5006257;28;20087;-85
2022/04/11 13:22:13;;;;;;;6.82;3.25;;;;;;;;;;5004357;28;20057;-82
2022/04/11 13:24:39;;;;;;;6.50;3.80;;;;;;;;;;5003359;28;20378;-85
2022/04/11 13:27:05;;;;;;;6.72;3.22;;;;;;;;;;5001183;28;20025;-82
2022/04/11 13:29:31;;;;;;;6.72;3.83;;;;;;;;;;5004051;28;20497;-85
2022/04/11 13:31:57;;;;;;;7.00;4.20;;;;;;;;;;5003056;28;20116;-80
2022/04/11 13:34:23;;;;;;;7.72;3.90;;;;;;;;;;5005242;28;20474;-79
2022/04/11 13:36:48;;;;;;;6.32;3.90;;;;;;;;;;5003637;28;20021;-80
2022/04/11 13:39:14;;;;;;;5.93;3.83;;;;;;;;;;5003527;28;20038;-80
2022/04/11 13:41:39;;;;;;;5.88;3.95;;;;;;;;;;5004151;28;20398;-82
2022/04/11 13:44:05;;;;;;;6.13;3.47;;;;;;;;;;5001927;28;20528;-80
2022/04/11 13:46:30;;;;;;;6.50;4.10;;;;;;;;;;5004156;28;20549;-85
2022/04/11 13:48:55;;;;;;;6.38;3.92;;;;;;;;;;5004276;28;20474;-84
2022/04/11 13:51:22;;;;;;;5.82;4.03;;;;;;;;;;5003924;28;20034;-79
2022/04/11 13:53:48;;;;;;;6.47;4.53;;;;;;;;;;5003248;28;20468;-80
2022/04/11 13:56:14;;;;;;;6.30;4.40;;;;;;;;;;5001791;28;20084;-81
2022/04/11 13:58:39;;;;;;;7.75;4.25;;;;;;;;;;5002660;28;20420;-84
2022/04/11 14:01:05;;;;;;;8.30;4.20;;;;;;;;;;5001284;28;20084;-84
2022/04/11 14:03:30;;;;;;;7.32;4.15;;;;;;;;;;5004526;28;20609;-80
2022/04/11 14:05:56;;;;;;;6.90;4.05;;;;;;;;;;5001336;28;20033;-83
2022/04/11 14:08:24;;;;;;;7.40;3.65;;;;;;;;;;4998347;28;20044;-81
2022/04/11 14:10:51;;;;;;;8.02;4.10;;;;;;;;;;5002129;28;20486;-84
2022/04/11 14:13:17;;;;;;;6.80;3.97;;;;;;;;;;5002612;28;20034;-84
2022/04/11 14:15:43;;;;;;;5.78;3.90;;;;;;;;;;5000089;28;20433;-81
2022/04/11 14:18:08;;;;;;;9.35;4.60;;;;;;;;;;5000544;28;20076;-85
2022/04/11 14:20:34;;;;;;;6.03;4.13;;;;;;;;;;5008215;28;20029;-85
2022/04/11 14:23:00;;;;;;;8.23;4.30;;;;;;;;;;5013244;28;20470;-85
2022/04/11 14:25:27;;;;;;;8.98;4.47;;;;;;;;;;5010974;28;20072;-80
2022/04/11 14:27:54;;;;;;;7.05;3.97;;;;;;;;;;5009763;28;20026;-85
2022/04/11 14:30:19;;;;;;;6.72;4.20;;;;;;;;;;5009620;28;20630;-86
2022/04/11 14:32:44;;;;;;;6.65;4.15;;;;;;;;;;5003383;28;20041;-81
2022/04/11 14:35:10;;;;;;;6.97;4.40;;;;;;;;;;5008633;28;20029;-81
2022/04/11 14:37:35;;;;;;;6.68;3.67;;;;;;;;;;5012120;28;20026;-85
2022/04/11 14:40:00;;;;;;;5.72;3.72;;;;;;;;;;5009448;28;20038;-80
2022/04/11 14:42:26;;;;;;;6.18;4.25;;;;;;;;;;5007588;28;20076;-83
2022/04/11 14:44:51;;;;;;;4.93;3.65;;;;;;;;;;5006666;28;20037;-79
2022/04/11 14:47:17;;;;;;;6.53;4.15;;;;;;;;;;5013726;28;20029;-85
2022/04/11 14:49:42;;;;;;;6.22;4.00;;;;;;;;;;5013096;28;20547;-80